createdAt,value
2017-08-03T00:01:05.668Z,78.70
2017-08-03T00:03:33.996Z,79.10
2017-08-03T00:06:02.338Z,79.00
2017-08-03T00:08:30.660Z,79.60
2017-08-03T00:10:59.177Z,80.00
2017-08-03T00:13:27.500Z,80.00
2017-08-03T00:15:55.837Z,80.20
2017-08-03T00:18:24.161Z,80.00
2017-08-03T00:20:52.460Z,80.00
2017-08-03T00:23:20.800Z,80.40
2017-08-03T00:25:49.104Z,81.00
2017-08-03T00:28:17.433Z,80.10
2017-08-03T00:30:45.737Z,80.50
2017-08-03T00:33:14.056Z,80.70
2017-08-03T00:35:42.356Z,81.70
2017-08-03T00:38:10.713Z,81.10
2017-08-03T00:40:39.010Z,81.00
2017-08-03T00:43:07.338Z,80.80
2017-08-03T00:45:48.512Z,80.90
2017-08-03T00:48:16.849Z,80.90
2017-08-03T00:50:45.147Z,80.70
2017-08-03T00:53:13.459Z,82.00
2017-08-03T00:55:41.804Z,83.10
2017-08-03T00:58:10.110Z,81.70
2017-08-03T01:00:38.458Z,80.80
2017-08-03T01:03:06.765Z,81.60
2017-08-03T01:05:35.088Z,81.40
2017-08-03T01:08:03.404Z,81.20
2017-08-03T01:10:31.737Z,81.90
2017-08-03T01:13:00.027Z,81.30
2017-08-03T01:15:28.353Z,82.70
2017-08-03T01:17:56.662Z,82.90
2017-08-03T01:20:25.004Z,83.20
2017-08-03T01:22:53.304Z,83.10
2017-08-03T01:25:21.613Z,82.50
2017-08-03T01:27:49.980Z,83.00
2017-08-03T01:30:18.286Z,82.50
2017-08-03T01:32:46.612Z,81.60
2017-08-03T01:35:14.913Z,81.80
2017-08-03T01:37:43.237Z,81.90
2017-08-03T01:40:11.549Z,82.70
2017-08-03T01:42:39.876Z,82.10
2017-08-03T01:45:08.197Z,81.60
2017-08-03T01:47:36.518Z,81.50
2017-08-03T01:50:04.826Z,82.00
2017-08-03T01:52:33.164Z,82.30
2017-08-03T01:55:01.465Z,82.30
2017-08-03T01:57:29.766Z,82.60
2017-08-03T01:59:58.093Z,82.40
2017-08-03T02:02:26.409Z,82.30
2017-08-03T02:04:54.753Z,82.20
2017-08-03T02:07:23.120Z,82.10
2017-08-03T02:09:51.476Z,81.90
2017-08-03T02:12:19.809Z,82.00
2017-08-03T02:14:48.136Z,81.20
2017-08-03T02:17:16.446Z,81.90
2017-08-03T02:19:44.769Z,81.90
2017-08-03T02:22:13.082Z,81.80
2017-08-03T02:24:41.412Z,83.00
2017-08-03T02:27:09.751Z,82.70
2017-08-03T02:29:38.073Z,82.80
2017-08-03T02:32:06.392Z,82.20
2017-08-03T02:34:34.706Z,82.40
2017-08-03T02:37:03.048Z,82.80
2017-08-03T02:39:31.365Z,83.10
2017-08-03T02:41:59.694Z,83.20
2017-08-03T02:44:27.993Z,83.10
2017-08-03T02:46:56.319Z,82.90
2017-08-03T02:49:24.625Z,83.80
2017-08-03T02:51:52.969Z,83.30
2017-08-03T02:54:21.273Z,83.50
2017-08-03T02:56:49.672Z,83.80
2017-08-03T02:59:17.976Z,83.40
2017-08-03T03:01:46.315Z,83.70
2017-08-03T03:04:14.619Z,83.50
2017-08-03T03:06:43.859Z,83.80
2017-08-03T03:09:12.164Z,82.90
2017-08-03T03:11:40.490Z,83.40
2017-08-03T03:14:08.795Z,82.90
2017-08-03T03:16:37.134Z,84.00
2017-08-03T03:19:05.461Z,83.50
2017-08-03T03:21:33.765Z,83.30
2017-08-03T03:24:02.090Z,84.30
2017-08-03T03:26:30.405Z,84.10
2017-08-03T03:28:58.740Z,84.00
2017-08-03T03:31:27.059Z,84.50
2017-08-03T03:33:55.392Z,84.00
2017-08-03T03:36:23.711Z,84.50
2017-08-03T03:38:52.072Z,84.70
2017-08-03T03:41:20.385Z,84.50
2017-08-03T03:43:48.732Z,84.70
2017-08-03T03:46:17.038Z,84.20
2017-08-03T03:48:45.366Z,85.30
2017-08-03T03:51:13.711Z,84.70
2017-08-03T03:53:42.046Z,86.10
2017-08-03T03:56:10.371Z,86.20
2017-08-03T03:58:38.703Z,85.80
2017-08-03T04:01:07.014Z,85.30
2017-08-03T04:03:35.362Z,85.60
2017-08-03T04:06:03.675Z,85.20
2017-08-03T04:08:32.031Z,85.00
2017-08-03T04:11:00.524Z,86.10
2017-08-03T04:13:28.871Z,86.60
2017-08-03T04:15:57.197Z,86.80
2017-08-03T04:18:25.726Z,86.70
2017-08-03T04:20:54.277Z,89.70
2017-08-03T04:23:22.650Z,90.30
2017-08-03T04:25:51.142Z,90.30
2017-08-03T04:28:19.454Z,90.30
2017-08-03T04:30:47.800Z,91.00
2017-08-03T04:33:16.363Z,90.70
2017-08-03T04:35:44.716Z,90.70
2017-08-03T04:38:13.045Z,90.50
2017-08-03T04:40:41.398Z,90.90
2017-08-03T04:43:09.720Z,90.80
2017-08-03T04:45:38.076Z,90.80
2017-08-03T04:48:06.398Z,90.90
2017-08-03T04:50:34.750Z,90.70
2017-08-03T04:53:03.077Z,90.70
2017-08-03T04:55:31.439Z,90.80
2017-08-03T04:57:59.756Z,90.80
2017-08-03T05:00:28.091Z,90.60
2017-08-03T05:02:56.532Z,90.30
2017-08-03T05:05:24.881Z,90.80
2017-08-03T05:07:53.202Z,90.30
2017-08-03T05:10:21.542Z,90.20
2017-08-03T05:12:49.875Z,90.10
2017-08-03T05:15:18.216Z,90.40
2017-08-03T05:17:46.571Z,90.60
2017-08-03T05:20:14.930Z,90.30
2017-08-03T05:22:43.245Z,90.40
2017-08-03T05:25:11.585Z,90.40
2017-08-03T05:27:39.907Z,90.10
2017-08-03T05:30:08.249Z,90.10
2017-08-03T05:32:36.585Z,89.90
2017-08-03T05:35:04.901Z,90.00
2017-08-03T05:37:33.249Z,90.00
2017-08-03T05:40:01.580Z,90.30
2017-08-03T05:42:29.921Z,90.10
2017-08-03T05:44:58.246Z,90.30
2017-08-03T05:47:26.923Z,90.10
2017-08-03T05:49:55.247Z,90.50
2017-08-03T05:52:23.595Z,90.40
2017-08-03T05:54:51.927Z,90.50
2017-08-03T05:57:20.275Z,91.20
2017-08-03T05:59:48.594Z,91.80
2017-08-03T06:02:16.941Z,92.30
2017-08-03T06:04:45.268Z,92.70
2017-08-03T06:07:13.638Z,92.10
2017-08-03T06:09:41.958Z,92.20
2017-08-03T06:12:10.302Z,92.60
2017-08-03T06:14:38.621Z,92.40
2017-08-03T06:17:06.960Z,92.30
2017-08-03T06:19:35.285Z,91.90
2017-08-03T06:22:03.630Z,92.00
2017-08-03T06:24:31.959Z,91.60
2017-08-03T06:27:00.320Z,91.40
2017-08-03T06:29:28.648Z,91.30
2017-08-03T06:31:57.010Z,91.00
2017-08-03T06:34:25.352Z,91.50
2017-08-03T06:36:53.672Z,91.70
2017-08-03T06:39:22.008Z,91.80
2017-08-03T06:41:50.332Z,91.60
2017-08-03T06:44:21.828Z,91.80
2017-08-03T06:46:50.151Z,91.70
2017-08-03T06:49:18.498Z,91.60
2017-08-03T06:51:46.828Z,91.80
2017-08-03T06:54:15.179Z,91.50
2017-08-03T06:56:43.519Z,91.60
2017-08-03T06:59:11.923Z,92.50
2017-08-03T07:01:40.251Z,92.90
2017-08-03T07:04:08.607Z,93.10
2017-08-03T07:06:36.943Z,93.30
2017-08-03T07:09:05.294Z,93.40
2017-08-03T07:11:33.619Z,93.20
2017-08-03T07:14:01.961Z,93.30
2017-08-03T07:16:30.322Z,93.00
2017-08-03T07:18:58.680Z,92.10
2017-08-03T07:21:27.011Z,92.10
2017-08-03T07:23:55.359Z,91.70
2017-08-03T07:26:23.679Z,91.90
2017-08-03T07:28:52.055Z,92.00
2017-08-03T07:31:20.404Z,91.90
2017-08-03T07:33:48.717Z,92.10
2017-08-03T07:36:17.074Z,91.90
2017-08-03T07:38:45.393Z,91.60
2017-08-03T07:41:14.561Z,92.10
2017-08-03T07:43:42.894Z,92.00
2017-08-03T07:46:11.234Z,91.80
2017-08-03T07:48:39.562Z,91.80
2017-08-03T07:51:07.937Z,91.50
2017-08-03T07:53:36.267Z,91.60
2017-08-03T07:56:04.626Z,91.90
2017-08-03T07:58:32.949Z,91.60
2017-08-03T08:01:01.322Z,91.70
2017-08-03T08:03:29.651Z,92.00
2017-08-03T08:05:58.034Z,91.90
2017-08-03T08:08:26.352Z,92.20
2017-08-03T08:10:54.701Z,92.20
2017-08-03T08:13:23.022Z,92.00
2017-08-03T08:15:51.462Z,92.50
2017-08-03T08:18:19.789Z,92.40
2017-08-03T08:20:48.155Z,92.40
2017-08-03T08:23:16.490Z,92.50
2017-08-03T08:25:44.814Z,92.10
2017-08-03T08:28:13.164Z,91.80
2017-08-03T08:30:41.491Z,91.90
2017-08-03T08:33:09.834Z,91.80
2017-08-03T08:35:38.153Z,91.90
2017-08-03T08:38:06.499Z,91.90
2017-08-03T08:40:34.826Z,92.10
2017-08-03T08:43:03.164Z,92.20
2017-08-03T08:45:31.483Z,91.90
2017-08-03T08:47:59.844Z,92.00
2017-08-03T08:50:28.168Z,92.40
2017-08-03T08:52:56.517Z,91.70
2017-08-03T08:55:24.843Z,91.30
2017-08-03T08:57:53.197Z,91.60
2017-08-03T09:00:21.510Z,91.50
2017-08-03T09:02:49.845Z,91.80
2017-08-03T09:05:18.158Z,92.00
2017-08-03T09:07:46.506Z,91.10
2017-08-03T09:10:14.836Z,91.30
2017-08-03T09:12:43.169Z,91.20
2017-08-03T09:15:11.480Z,91.20
2017-08-03T09:17:39.852Z,91.30
2017-08-03T09:20:08.173Z,91.00
2017-08-03T09:22:36.540Z,91.10
2017-08-03T09:25:04.858Z,90.90
2017-08-03T09:27:33.177Z,90.60
2017-08-03T09:30:01.533Z,90.80
2017-08-03T09:32:30.793Z,90.80
2017-08-03T09:34:59.125Z,90.40
2017-08-03T09:37:27.448Z,90.90
2017-08-03T09:39:55.790Z,90.80
2017-08-03T09:42:24.106Z,91.00
2017-08-03T09:44:52.462Z,91.40
2017-08-03T09:47:20.784Z,91.30
2017-08-03T09:49:49.114Z,91.20
2017-08-03T09:52:17.424Z,90.90
2017-08-03T09:54:45.786Z,90.20
2017-08-03T09:57:14.127Z,90.90
2017-08-03T09:59:42.470Z,90.20
2017-08-03T10:02:10.782Z,89.10
2017-08-03T10:04:39.124Z,90.00
2017-08-03T10:07:07.443Z,90.90
2017-08-03T10:09:35.786Z,90.50
2017-08-03T10:12:04.111Z,90.60
2017-08-03T10:14:32.464Z,90.50
2017-08-03T10:17:00.774Z,90.30
2017-08-03T10:19:29.115Z,89.90
2017-08-03T10:21:57.434Z,88.00
2017-08-03T10:24:25.778Z,89.40
2017-08-03T10:26:54.105Z,88.90
2017-08-03T10:29:22.458Z,88.80
2017-08-03T10:31:50.784Z,88.60
2017-08-03T10:34:19.090Z,87.60
2017-08-03T10:36:47.419Z,88.30
2017-08-03T10:39:15.738Z,88.60
2017-08-03T10:41:44.073Z,88.80
2017-08-03T10:44:12.389Z,88.30
2017-08-03T10:46:40.727Z,88.50
2017-08-03T10:49:09.662Z,87.50
2017-08-03T10:51:38.010Z,88.20
2017-08-03T10:54:06.330Z,88.30
2017-08-03T10:56:34.661Z,88.90
2017-08-03T10:59:02.984Z,89.30
2017-08-03T11:01:31.317Z,88.40
2017-08-03T11:03:59.635Z,87.70
2017-08-03T11:06:27.977Z,86.40
2017-08-03T11:08:56.303Z,88.00
2017-08-03T11:11:24.641Z,86.20
2017-08-03T11:13:52.960Z,87.90
2017-08-03T11:16:21.309Z,86.20
2017-08-03T11:18:49.639Z,86.50
2017-08-03T11:21:17.972Z,85.80
2017-08-03T11:23:46.310Z,86.80
2017-08-03T11:26:14.681Z,86.50
2017-08-03T11:28:43.002Z,85.50
2017-08-03T11:31:11.352Z,86.30
2017-08-03T11:33:40.547Z,86.40
2017-08-03T11:36:08.932Z,85.40
2017-08-03T11:38:37.247Z,84.10
2017-08-03T11:41:05.586Z,84.90
2017-08-03T11:43:33.906Z,85.20
2017-08-03T11:46:02.233Z,85.30
2017-08-03T11:48:30.579Z,84.70
2017-08-03T11:50:58.906Z,85.10
2017-08-03T11:53:27.246Z,83.20
2017-08-03T11:55:55.567Z,84.00
2017-08-03T11:58:23.923Z,83.20
2017-08-03T12:00:52.255Z,83.30
2017-08-03T12:03:20.594Z,84.50
2017-08-03T12:05:48.923Z,83.70
2017-08-03T12:08:17.309Z,84.30
2017-08-03T12:10:45.650Z,82.80
2017-08-03T12:13:13.993Z,83.60
2017-08-03T12:15:42.809Z,82.90
2017-08-03T12:18:11.142Z,83.20
2017-08-03T12:20:39.465Z,83.90
2017-08-03T12:23:07.845Z,83.80
2017-08-03T12:25:36.163Z,83.40
2017-08-03T12:28:04.524Z,83.50
2017-08-03T12:30:32.853Z,84.50
2017-08-03T12:33:01.197Z,84.70
2017-08-03T12:35:29.552Z,83.10
2017-08-03T12:37:57.907Z,84.00
2017-08-03T12:40:26.227Z,83.50
2017-08-03T12:42:54.570Z,83.60
2017-08-03T12:45:22.903Z,83.10
2017-08-03T12:47:51.256Z,83.10
2017-08-03T12:50:19.578Z,83.30
2017-08-03T12:52:47.980Z,83.20
2017-08-03T12:55:16.326Z,83.70
2017-08-03T12:57:44.647Z,82.70
2017-08-03T13:00:12.983Z,82.70
2017-08-03T13:02:41.321Z,82.60
2017-08-03T13:05:09.666Z,81.30
2017-08-03T13:07:37.974Z,81.30
2017-08-03T13:10:06.310Z,81.50
2017-08-03T13:12:34.626Z,80.50
2017-08-03T13:15:02.969Z,79.70
2017-08-03T13:17:31.287Z,80.00
2017-08-03T13:19:59.633Z,80.80
2017-08-03T13:22:27.995Z,79.70
2017-08-03T13:24:56.325Z,80.50
2017-08-03T13:27:24.646Z,80.00
2017-08-03T13:29:52.986Z,79.80
2017-08-03T13:32:21.316Z,79.40
2017-08-03T13:34:49.645Z,79.20
2017-08-03T13:37:18.039Z,78.50
2017-08-03T13:39:46.382Z,78.50
2017-08-03T13:42:14.716Z,79.50
2017-08-03T13:44:43.061Z,78.10
2017-08-03T13:47:11.383Z,76.90
2017-08-03T13:49:39.709Z,78.20
2017-08-03T13:52:08.057Z,77.30
2017-08-03T13:54:36.404Z,76.80
2017-08-03T13:57:04.717Z,76.00
2017-08-03T13:59:33.040Z,75.40
2017-08-03T14:02:01.383Z,75.60
2017-08-03T14:04:29.717Z,73.50
2017-08-03T14:06:58.157Z,74.10
2017-08-03T14:09:26.471Z,74.40
2017-08-03T14:11:54.806Z,73.70
2017-08-03T14:14:23.117Z,72.70
2017-08-03T14:16:51.456Z,71.70
2017-08-03T14:19:19.781Z,69.50
2017-08-03T14:21:48.122Z,71.30
2017-08-03T14:24:16.420Z,71.20
2017-08-03T14:26:44.758Z,68.90
2017-08-03T14:29:13.068Z,68.50
2017-08-03T14:31:41.407Z,67.10
2017-08-03T14:34:09.715Z,68.80
2017-08-03T14:36:38.058Z,65.70
2017-08-03T14:39:06.387Z,65.40
2017-08-03T14:41:34.731Z,65.90
2017-08-03T14:44:03.040Z,67.20
2017-08-03T14:46:31.374Z,66.00
2017-08-03T14:48:59.708Z,65.20
2017-08-03T14:51:28.021Z,66.90
2017-08-03T14:53:56.345Z,65.30
2017-08-03T14:56:24.663Z,65.30
2017-08-03T14:58:52.990Z,63.20
2017-08-03T15:01:21.291Z,60.30
2017-08-03T15:03:49.626Z,62.00
2017-08-03T15:06:17.939Z,62.90
2017-08-03T15:08:46.280Z,61.50
2017-08-03T15:11:14.591Z,61.60
2017-08-03T15:13:42.925Z,61.40
2017-08-03T15:16:11.265Z,60.50
2017-08-03T15:18:39.566Z,60.10
2017-08-03T15:21:07.904Z,59.90
2017-08-03T15:23:36.214Z,59.20
2017-08-03T15:26:04.547Z,59.70
2017-08-03T15:28:32.867Z,58.80
2017-08-03T15:31:01.271Z,58.30
2017-08-03T15:33:29.590Z,58.80
2017-08-03T15:44:56.647Z,59.20
2017-08-03T15:47:24.975Z,59.40
2017-08-03T15:49:53.287Z,59.80
2017-08-03T15:52:21.613Z,60.20
2017-08-03T15:54:49.987Z,59.80
2017-08-03T15:57:18.327Z,59.90
2017-08-03T15:59:46.635Z,59.30
2017-08-03T16:02:14.963Z,59.20
2017-08-03T16:04:43.278Z,59.90
2017-08-03T16:07:11.588Z,59.60
2017-08-03T16:09:39.918Z,59.30
2017-08-03T16:12:08.230Z,58.80
2017-08-03T16:14:36.585Z,58.60
2017-08-03T16:17:04.899Z,59.70
2017-08-03T16:19:33.228Z,59.50
2017-08-03T16:25:02.040Z,57.80
2017-08-03T16:27:30.349Z,57.80
2017-08-03T16:29:58.686Z,57.70
2017-08-03T16:32:27.191Z,58.30
2017-08-03T16:34:55.533Z,57.40
2017-08-03T16:37:23.841Z,57.90
2017-08-03T16:39:52.170Z,57.20
2017-08-03T16:42:20.494Z,57.30
2017-08-03T16:44:48.811Z,57.20
2017-08-03T16:47:17.180Z,57.70
2017-08-03T16:49:45.490Z,56.30
2017-08-03T16:52:13.832Z,57.00
2017-08-03T16:54:42.149Z,57.20
2017-08-03T16:57:10.490Z,58.20
2017-08-03T16:59:38.810Z,57.40
2017-08-03T17:02:07.499Z,57.30
2017-08-03T17:04:35.835Z,57.70
2017-08-03T17:07:04.400Z,57.30
2017-08-03T17:09:32.811Z,58.10
2017-08-03T17:18:09.099Z,57.80
2017-08-03T17:20:37.440Z,57.90
2017-08-03T17:23:05.772Z,58.60
2017-08-03T17:25:34.198Z,57.30
2017-08-03T17:28:02.526Z,57.60
2017-08-03T17:30:30.835Z,58.10
2017-08-03T17:32:59.161Z,58.50
2017-08-03T17:35:27.497Z,58.30
2017-08-03T17:37:55.803Z,58.80
2017-08-03T17:40:24.185Z,57.90
2017-08-03T17:42:52.486Z,58.30
2017-08-03T17:45:21.721Z,58.80
2017-08-03T17:47:50.023Z,59.10
2017-08-03T17:50:18.368Z,59.20
2017-08-03T17:52:46.666Z,59.00
2017-08-03T17:55:15.100Z,59.20
2017-08-03T17:57:43.835Z,59.00
2017-08-03T18:00:12.227Z,59.60
2017-08-03T18:02:40.703Z,59.60
2017-08-03T18:05:12.205Z,60.10
2017-08-03T18:07:40.552Z,60.20
2017-08-03T18:10:08.906Z,60.20
2017-08-03T18:12:37.258Z,61.00
2017-08-03T18:15:05.688Z,60.60
2017-08-03T18:17:34.033Z,61.00
2017-08-03T18:20:02.361Z,61.40
2017-08-03T18:22:30.711Z,61.70
2017-08-03T18:24:59.013Z,61.70
2017-08-03T18:27:27.348Z,61.90
2017-08-03T18:29:55.758Z,62.70
2017-08-03T18:32:24.134Z,62.40
2017-08-03T18:34:52.453Z,63.00
2017-08-03T18:37:20.798Z,63.30
2017-08-03T18:39:50.022Z,64.10
2017-08-03T18:42:18.346Z,64.00
2017-08-03T18:44:47.010Z,64.50
2017-08-03T18:47:15.389Z,65.20
2017-08-03T18:49:43.735Z,64.10
2017-08-03T18:52:12.071Z,65.20
2017-08-03T18:54:40.393Z,64.90
2017-08-03T18:57:08.709Z,65.10
2017-08-03T18:59:37.053Z,65.50
2017-08-03T19:02:05.358Z,66.00
2017-08-03T19:04:33.822Z,66.00
2017-08-03T19:07:02.141Z,67.30
2017-08-03T19:09:30.474Z,67.30
2017-08-03T19:11:58.824Z,67.20
2017-08-03T19:14:27.133Z,68.50
2017-08-03T19:16:55.475Z,69.10
2017-08-03T19:19:23.825Z,70.70
2017-08-03T19:21:52.180Z,71.90
2017-08-03T19:24:20.489Z,71.70
2017-08-03T19:26:48.847Z,70.50
2017-08-03T19:29:17.371Z,70.30
2017-08-03T19:31:45.768Z,71.30
2017-08-03T19:34:14.128Z,71.90
2017-08-03T19:37:02.979Z,71.50
2017-08-03T19:39:31.312Z,70.80
2017-08-03T19:41:59.641Z,72.10
2017-08-03T19:44:27.992Z,72.70
2017-08-03T19:46:56.343Z,72.20
2017-08-03T19:49:24.658Z,72.10
2017-08-03T19:51:52.973Z,72.60
2017-08-03T19:54:21.318Z,72.30
2017-08-03T19:56:49.643Z,71.10
2017-08-03T19:59:17.980Z,71.90
2017-08-03T20:01:46.286Z,72.70
2017-08-03T20:04:14.624Z,73.90
2017-08-03T20:06:47.886Z,73.60
2017-08-03T20:09:18.069Z,73.90
2017-08-03T20:11:46.426Z,74.40
2017-08-03T20:14:14.818Z,74.80
2017-08-03T20:16:43.147Z,74.70
2017-08-03T20:19:11.508Z,74.50
2017-08-03T20:21:39.823Z,76.00
2017-08-03T20:24:08.163Z,76.20
2017-08-03T20:26:36.515Z,76.60
2017-08-03T20:29:04.839Z,76.10
2017-08-03T20:31:33.747Z,76.90
2017-08-03T20:34:02.098Z,76.50
2017-08-03T20:36:30.468Z,77.10
2017-08-03T20:38:58.792Z,77.10
2017-08-03T20:41:27.297Z,77.40
2017-08-03T20:43:55.609Z,77.50
2017-08-03T20:46:23.938Z,77.50
2017-08-03T20:48:52.339Z,77.40
2017-08-03T20:51:20.751Z,77.50
2017-08-03T20:53:49.050Z,77.40
2017-08-03T20:56:17.561Z,77.70
2017-08-03T20:58:45.870Z,77.10
2017-08-03T21:01:14.200Z,78.90
2017-08-03T21:03:42.582Z,79.50
2017-08-03T21:06:11.101Z,79.50
2017-08-03T21:08:39.444Z,78.20
2017-08-03T21:14:07.911Z,78.00
2017-08-03T21:16:36.218Z,78.70
2017-08-03T21:19:04.666Z,79.30
2017-08-03T21:21:33.177Z,78.70
2017-08-03T21:24:01.675Z,79.60
2017-08-03T21:26:30.187Z,79.50
2017-08-03T21:28:58.607Z,78.60
2017-08-03T21:31:27.193Z,78.40
2017-08-03T21:33:55.607Z,78.20
2017-08-03T21:36:24.130Z,78.70
2017-08-03T21:38:52.935Z,78.30
2017-08-03T21:41:21.393Z,79.00
2017-08-03T21:43:49.842Z,79.00
2017-08-03T21:46:18.169Z,80.70
2017-08-03T21:48:46.473Z,81.00
2017-08-03T21:51:14.818Z,80.00
2017-08-03T21:53:43.140Z,80.00
2017-08-03T21:56:11.480Z,78.80
2017-08-03T21:58:39.795Z,79.70
2017-08-03T22:01:17.920Z,80.20
2017-08-03T22:03:46.234Z,80.00
2017-08-03T22:06:14.590Z,79.90
2017-08-03T22:08:42.896Z,79.30
2017-08-03T22:11:11.251Z,80.50
2017-08-03T22:13:39.569Z,80.80
2017-08-03T22:16:07.878Z,80.10
2017-08-03T22:18:36.215Z,81.20
2017-08-03T22:21:04.526Z,81.80
2017-08-03T22:23:32.841Z,81.60
2017-08-03T22:26:01.151Z,81.70
2017-08-03T22:28:29.492Z,82.70
2017-08-03T22:30:57.790Z,82.10
2017-08-03T22:33:26.131Z,82.20
2017-08-03T22:35:54.434Z,82.20
2017-08-03T22:38:22.761Z,82.40
2017-08-03T22:40:51.079Z,82.00
2017-08-03T22:43:19.417Z,82.40
2017-08-03T22:45:47.727Z,83.00
2017-08-03T22:48:16.038Z,82.70
2017-08-03T22:50:44.374Z,81.30
2017-08-03T22:53:12.692Z,82.00
2017-08-03T22:55:41.048Z,82.10
2017-08-03T22:58:09.363Z,82.30
2017-08-03T23:00:37.710Z,82.10
2017-08-03T23:03:06.047Z,82.70
2017-08-03T23:05:34.396Z,82.50
2017-08-03T23:08:02.716Z,83.30
2017-08-03T23:10:31.046Z,83.50
2017-08-03T23:12:59.364Z,82.90
2017-08-03T23:15:27.733Z,83.00
2017-08-03T23:17:56.042Z,82.80
2017-08-03T23:20:24.347Z,82.30
2017-08-03T23:22:52.682Z,82.60
2017-08-03T23:25:20.995Z,82.70
2017-08-03T23:27:49.323Z,82.80
2017-08-03T23:30:17.635Z,82.70
2017-08-03T23:32:45.971Z,82.80
2017-08-03T23:35:14.282Z,82.10
2017-08-03T23:37:42.604Z,82.00
2017-08-03T23:40:10.913Z,82.00
2017-08-03T23:42:39.252Z,82.40
2017-08-03T23:45:07.563Z,82.60
2017-08-03T23:47:35.880Z,82.70
2017-08-03T23:50:04.219Z,82.80
2017-08-03T23:52:32.530Z,83.10
2017-08-03T23:55:00.857Z,82.80
2017-08-03T23:57:29.180Z,83.40
2017-08-03T23:59:57.529Z,83.10
